sensor_id;sensor_type;location;lat;lon;timestamp;temperature;humidity
59041;DHT22;44825;53.200;6.448;2022-09-27T00:00:14;11.50;99.90
59041;DHT22;44825;53.200;6.448;2022-09-27T00:02:42;11.50;99.90
59041;DHT22;44825;53.200;6.448;2022-09-27T00:05:10;11.50;99.90
59041;DHT22;44825;53.200;6.448;2022-09-27T00:07:37;11.60;99.90
59041;DHT22;44825;53.200;6.448;2022-09-27T00:10:05;11.60;99.90
59041;DHT22;44825;53.200;6.448;2022-09-27T00:12:35;11.50;99.90
59041;DHT22;44825;53.200;6.448;2022-09-27T00:15:02;11.50;99.90
59041;DHT22;44825;53.200;6.448;2022-09-27T00:17:30;11.50;99.90
59041;DHT22;44825;53.200;6.448;2022-09-27T00:19:58;11.50;99.90
59041;DHT22;44825;53.200;6.448;2022-09-27T00:22:26;11.50;99.90
59041;DHT22;44825;53.200;6.448;2022-09-27T00:24:53;11.50;99.90
59041;DHT22;44825;53.200;6.448;2022-09-27T00:27:21;11.50;99.90
59041;DHT22;44825;53.200;6.448;2022-09-27T00:29:49;11.50;99.90
59041;DHT22;44825;53.200;6.448;2022-09-27T00:32:17;11.50;99.90
59041;DHT22;44825;53.200;6.448;2022-09-27T00:34:45;11.50;99.90
59041;DHT22;44825;53.200;6.448;2022-09-27T00:37:12;11.40;99.90
59041;DHT22;44825;53.200;6.448;2022-09-27T00:39:40;11.40;99.90
59041;DHT22;44825;53.200;6.448;2022-09-27T00:42:09;11.40;99.90
59041;DHT22;44825;53.200;6.448;2022-09-27T00:45:14;11.40;99.90
59041;DHT22;44825;53.200;6.448;2022-09-27T00:47:48;11.30;99.90
59041;DHT22;44825;53.200;6.448;2022-09-27T00:50:25;11.30;99.90
59041;DHT22;44825;53.200;6.448;2022-09-27T00:53:00;11.30;99.90
59041;DHT22;44825;53.200;6.448;2022-09-27T00:55:34;11.30;99.90
59041;DHT22;44825;53.200;6.448;2022-09-27T00:58:02;11.30;99.90
59041;DHT22;44825;53.200;6.448;2022-09-27T01:00:32;11.30;99.90
59041;DHT22;44825;53.200;6.448;2022-09-27T01:03:00;11.30;99.90
59041;DHT22;44825;53.200;6.448;2022-09-27T01:05:31;11.20;99.90
59041;DHT22;44825;53.200;6.448;2022-09-27T01:07:58;11.30;99.90
59041;DHT22;44825;53.200;6.448;2022-09-27T01:10:28;11.20;99.90
59041;DHT22;44825;53.200;6.448;2022-09-27T01:13:06;11.20;99.90
59041;DHT22;44825;53.200;6.448;2022-09-27T01:15:45;11.30;99.90
59041;DHT22;44825;53.200;6.448;2022-09-27T01:18:26;11.30;99.90
59041;DHT22;44825;53.200;6.448;2022-09-27T01:21:20;11.30;99.90
59041;DHT22;44825;53.200;6.448;2022-09-27T01:30:22;11.30;99.90
59041;DHT22;44825;53.200;6.448;2022-09-27T01:32:59;11.30;99.90
59041;DHT22;44825;53.200;6.448;2022-09-27T01:35:35;11.30;99.90
59041;DHT22;44825;53.200;6.448;2022-09-27T01:38:13;11.30;99.90
59041;DHT22;44825;53.200;6.448;2022-09-27T01:40:50;11.30;99.90
59041;DHT22;44825;53.200;6.448;2022-09-27T01:43:22;11.30;99.90
59041;DHT22;44825;53.200;6.448;2022-09-27T01:45:54;11.20;99.90
59041;DHT22;44825;53.200;6.448;2022-09-27T01:48:24;11.20;99.90
59041;DHT22;44825;53.200;6.448;2022-09-27T01:50:56;11.20;99.90
59041;DHT22;44825;53.200;6.448;2022-09-27T01:53:27;11.20;99.90
59041;DHT22;44825;53.200;6.448;2022-09-27T01:56:02;11.20;99.90
59041;DHT22;44825;53.200;6.448;2022-09-27T01:58:33;11.10;99.90
59041;DHT22;44825;53.200;6.448;2022-09-27T02:01:05;11.20;99.90
59041;DHT22;44825;53.200;6.448;2022-09-27T02:03:35;11.20;99.90
59041;DHT22;44825;53.200;6.448;2022-09-27T02:06:06;11.20;99.90
59041;DHT22;44825;53.200;6.448;2022-09-27T02:08:38;11.10;99.90
59041;DHT22;44825;53.200;6.448;2022-09-27T02:11:09;11.10;99.90
59041;DHT22;44825;53.200;6.448;2022-09-27T02:13:39;11.10;99.90
59041;DHT22;44825;53.200;6.448;2022-09-27T02:16:19;11.10;99.90
59041;DHT22;44825;53.200;6.448;2022-09-27T02:18:55;11.10;99.90
59041;DHT22;44825;53.200;6.448;2022-09-27T02:21:32;11.10;99.90
59041;DHT22;44825;53.200;6.448;2022-09-27T02:24:05;11.10;99.90
59041;DHT22;44825;53.200;6.448;2022-09-27T02:26:37;11.10;99.90
59041;DHT22;44825;53.200;6.448;2022-09-27T02:29:08;11.10;99.90
59041;DHT22;44825;53.200;6.448;2022-09-27T02:31:38;11.10;99.90
59041;DHT22;44825;53.200;6.448;2022-09-27T02:34:09;11.10;99.90
59041;DHT22;44825;53.200;6.448;2022-09-27T02:36:37;11.10;99.90
59041;DHT22;44825;53.200;6.448;2022-09-27T02:39:04;11.10;99.90
59041;DHT22;44825;53.200;6.448;2022-09-27T02:41:32;11.00;99.90
59041;DHT22;44825;53.200;6.448;2022-09-27T02:44:01;11.00;99.90
59041;DHT22;44825;53.200;6.448;2022-09-27T02:46:55;11.00;99.90
59041;DHT22;44825;53.200;6.448;2022-09-27T02:49:35;11.00;99.90
59041;DHT22;44825;53.200;6.448;2022-09-27T02:52:14;11.00;99.90
59041;DHT22;44825;53.200;6.448;2022-09-27T02:54:50;11.10;99.90
59041;DHT22;44825;53.200;6.448;2022-09-27T02:57:28;11.00;99.90
59041;DHT22;44825;53.200;6.448;2022-09-27T03:00:02;11.00;99.90
59041;DHT22;44825;53.200;6.448;2022-09-27T03:02:37;11.00;99.90
59041;DHT22;44825;53.200;6.448;2022-09-27T03:05:08;11.00;99.90
59041;DHT22;44825;53.200;6.448;2022-09-27T03:07:37;11.00;99.90
59041;DHT22;44825;53.200;6.448;2022-09-27T03:10:06;11.00;99.90
59041;DHT22;44825;53.200;6.448;2022-09-27T03:12:33;11.00;99.90
59041;DHT22;44825;53.200;6.448;2022-09-27T03:15:01;10.90;99.90
59041;DHT22;44825;53.200;6.448;2022-09-27T03:17:28;10.90;99.90
59041;DHT22;44825;53.200;6.448;2022-09-27T03:19:57;10.90;99.90
59041;DHT22;44825;53.200;6.448;2022-09-27T03:22:24;10.90;99.90
59041;DHT22;44825;53.200;6.448;2022-09-27T03:24:51;10.90;99.90
59041;DHT22;44825;53.200;6.448;2022-09-27T03:27:19;10.90;99.90
59041;DHT22;44825;53.200;6.448;2022-09-27T03:29:46;10.80;99.90
59041;DHT22;44825;53.200;6.448;2022-09-27T03:32:13;10.80;99.90
59041;DHT22;44825;53.200;6.448;2022-09-27T03:34:41;10.80;99.90
59041;DHT22;44825;53.200;6.448;2022-09-27T03:37:09;10.80;99.90
59041;DHT22;44825;53.200;6.448;2022-09-27T03:39:37;10.80;99.90
59041;DHT22;44825;53.200;6.448;2022-09-27T03:42:05;10.80;99.90
59041;DHT22;44825;53.200;6.448;2022-09-27T03:44:32;10.80;99.90
59041;DHT22;44825;53.200;6.448;2022-09-27T03:47:00;10.80;99.90
59041;DHT22;44825;53.200;6.448;2022-09-27T03:49:27;10.80;99.90
59041;DHT22;44825;53.200;6.448;2022-09-27T03:51:55;10.80;99.90
59041;DHT22;44825;53.200;6.448;2022-09-27T03:54:23;10.70;99.90
59041;DHT22;44825;53.200;6.448;2022-09-27T03:56:51;10.80;99.90
59041;DHT22;44825;53.200;6.448;2022-09-27T03:59:18;10.80;99.90
59041;DHT22;44825;53.200;6.448;2022-09-27T04:01:45;10.80;99.90
59041;DHT22;44825;53.200;6.448;2022-09-27T04:04:13;10.80;99.90
59041;DHT22;44825;53.200;6.448;2022-09-27T04:06:40;10.80;99.90
59041;DHT22;44825;53.200;6.448;2022-09-27T04:09:07;10.80;99.90
59041;DHT22;44825;53.200;6.448;2022-09-27T04:11:36;10.80;99.90
59041;DHT22;44825;53.200;6.448;2022-09-27T04:14:03;10.70;99.90
59041;DHT22;44825;53.200;6.448;2022-09-27T04:16:31;10.70;99.90
59041;DHT22;44825;53.200;6.448;2022-09-27T04:18:58;10.80;99.90
59041;DHT22;44825;53.200;6.448;2022-09-27T04:21:26;10.80;99.90
59041;DHT22;44825;53.200;6.448;2022-09-27T04:23:53;10.80;99.90
59041;DHT22;44825;53.200;6.448;2022-09-27T04:26:21;10.80;99.90
59041;DHT22;44825;53.200;6.448;2022-09-27T04:28:50;10.80;99.90
59041;DHT22;44825;53.200;6.448;2022-09-27T04:31:17;10.80;99.90
59041;DHT22;44825;53.200;6.448;2022-09-27T04:33:45;10.80;99.90
59041;DHT22;44825;53.200;6.448;2022-09-27T04:36:16;10.80;99.90
59041;DHT22;44825;53.200;6.448;2022-09-27T04:38:52;10.70;99.90
59041;DHT22;44825;53.200;6.448;2022-09-27T04:41:20;10.80;99.90
59041;DHT22;44825;53.200;6.448;2022-09-27T04:43:50;10.80;99.90
59041;DHT22;44825;53.200;6.448;2022-09-27T04:46:17;10.80;99.90
59041;DHT22;44825;53.200;6.448;2022-09-27T04:48:46;10.80;99.90
59041;DHT22;44825;53.200;6.448;2022-09-27T04:51:14;10.80;99.90
59041;DHT22;44825;53.200;6.448;2022-09-27T04:53:42;10.80;99.90
59041;DHT22;44825;53.200;6.448;2022-09-27T04:56:09;10.80;99.90
59041;DHT22;44825;53.200;6.448;2022-09-27T04:58:38;10.80;99.90
59041;DHT22;44825;53.200;6.448;2022-09-27T05:01:06;10.80;99.90
59041;DHT22;44825;53.200;6.448;2022-09-27T05:03:34;10.80;99.90
59041;DHT22;44825;53.200;6.448;2022-09-27T05:06:02;10.70;99.90
59041;DHT22;44825;53.200;6.448;2022-09-27T05:08:30;10.80;99.90
59041;DHT22;44825;53.200;6.448;2022-09-27T05:10:57;10.80;99.90
59041;DHT22;44825;53.200;6.448;2022-09-27T05:13:24;10.70;99.90
59041;DHT22;44825;53.200;6.448;2022-09-27T05:15:52;10.70;99.90
59041;DHT22;44825;53.200;6.448;2022-09-27T05:18:21;10.70;99.90
59041;DHT22;44825;53.200;6.448;2022-09-27T05:20:48;10.70;99.90
59041;DHT22;44825;53.200;6.448;2022-09-27T05:23:16;10.70;99.90
59041;DHT22;44825;53.200;6.448;2022-09-27T05:25:43;10.70;99.90
59041;DHT22;44825;53.200;6.448;2022-09-27T05:28:11;10.70;99.90
59041;DHT22;44825;53.200;6.448;2022-09-27T05:30:38;10.80;99.90
59041;DHT22;44825;53.200;6.448;2022-09-27T05:33:05;10.70;99.90
59041;DHT22;44825;53.200;6.448;2022-09-27T05:35:34;10.70;99.90
59041;DHT22;44825;53.200;6.448;2022-09-27T05:38:01;10.70;99.90
59041;DHT22;44825;53.200;6.448;2022-09-27T05:40:29;10.70;99.90
59041;DHT22;44825;53.200;6.448;2022-09-27T05:42:56;10.70;99.90
59041;DHT22;44825;53.200;6.448;2022-09-27T05:45:24;10.70;99.90
59041;DHT22;44825;53.200;6.448;2022-09-27T05:47:53;10.70;99.90
59041;DHT22;44825;53.200;6.448;2022-09-27T05:50:20;10.70;99.90
59041;DHT22;44825;53.200;6.448;2022-09-27T05:52:49;10.80;99.90
59041;DHT22;44825;53.200;6.448;2022-09-27T05:55:17;10.70;99.90
59041;DHT22;44825;53.200;6.448;2022-09-27T05:57:53;10.80;99.90
59041;DHT22;44825;53.200;6.448;2022-09-27T06:00:21;10.80;99.90
59041;DHT22;44825;53.200;6.448;2022-09-27T06:02:58;10.80;99.90
59041;DHT22;44825;53.200;6.448;2022-09-27T06:05:27;10.80;99.90
59041;DHT22;44825;53.200;6.448;2022-09-27T06:08:00;10.80;99.90
59041;DHT22;44825;53.200;6.448;2022-09-27T06:10:28;10.80;99.90
59041;DHT22;44825;53.200;6.448;2022-09-27T06:12:58;10.80;99.90
59041;DHT22;44825;53.200;6.448;2022-09-27T06:15:27;10.80;99.90
59041;DHT22;44825;53.200;6.448;2022-09-27T06:17:54;10.80;99.90
59041;DHT22;44825;53.200;6.448;2022-09-27T06:20:22;10.80;99.90
59041;DHT22;44825;53.200;6.448;2022-09-27T06:22:49;10.80;99.90
59041;DHT22;44825;53.200;6.448;2022-09-27T06:25:20;10.80;99.90
59041;DHT22;44825;53.200;6.448;2022-09-27T06:27:47;10.80;99.90
59041;DHT22;44825;53.200;6.448;2022-09-27T06:30:15;10.80;99.90
59041;DHT22;44825;53.200;6.448;2022-09-27T06:32:42;10.80;99.90
59041;DHT22;44825;53.200;6.448;2022-09-27T06:35:09;10.70;99.90
59041;DHT22;44825;53.200;6.448;2022-09-27T06:37:36;10.80;99.90
59041;DHT22;44825;53.200;6.448;2022-09-27T06:40:05;10.80;99.90
59041;DHT22;44825;53.200;6.448;2022-09-27T06:42:35;10.80;99.90
59041;DHT22;44825;53.200;6.448;2022-09-27T06:45:03;10.80;99.90
59041;DHT22;44825;53.200;6.448;2022-09-27T06:47:34;10.80;99.90
59041;DHT22;44825;53.200;6.448;2022-09-27T06:50:01;10.80;99.90
59041;DHT22;44825;53.200;6.448;2022-09-27T06:52:30;10.80;99.90
59041;DHT22;44825;53.200;6.448;2022-09-27T06:54:57;10.90;99.90
59041;DHT22;44825;53.200;6.448;2022-09-27T06:57:25;10.90;99.90
59041;DHT22;44825;53.200;6.448;2022-09-27T07:00:09;10.80;99.90
59041;DHT22;44825;53.200;6.448;2022-09-27T07:02:52;10.90;99.90
59041;DHT22;44825;53.200;6.448;2022-09-27T07:05:23;10.90;99.90
59041;DHT22;44825;53.200;6.448;2022-09-27T07:07:51;10.90;99.90
59041;DHT22;44825;53.200;6.448;2022-09-27T07:10:23;10.90;99.90
59041;DHT22;44825;53.200;6.448;2022-09-27T07:12:51;10.90;99.90
59041;DHT22;44825;53.200;6.448;2022-09-27T07:15:21;10.90;99.90
59041;DHT22;44825;53.200;6.448;2022-09-27T07:17:55;10.90;99.90
59041;DHT22;44825;53.200;6.448;2022-09-27T07:20:23;11.00;99.90
59041;DHT22;44825;53.200;6.448;2022-09-27T07:22:50;11.00;99.90
59041;DHT22;44825;53.200;6.448;2022-09-27T07:25:18;11.00;99.90
59041;DHT22;44825;53.200;6.448;2022-09-27T07:27:45;11.00;99.90
59041;DHT22;44825;53.200;6.448;2022-09-27T07:30:13;11.10;99.90
59041;DHT22;44825;53.200;6.448;2022-09-27T07:32:42;11.10;99.90
59041;DHT22;44825;53.200;6.448;2022-09-27T07:35:11;11.10;99.90
59041;DHT22;44825;53.200;6.448;2022-09-27T07:37:40;11.20;99.90
59041;DHT22;44825;53.200;6.448;2022-09-27T07:40:09;11.10;99.90
59041;DHT22;44825;53.200;6.448;2022-09-27T07:42:36;11.10;99.90
59041;DHT22;44825;53.200;6.448;2022-09-27T07:45:05;11.10;99.90
59041;DHT22;44825;53.200;6.448;2022-09-27T07:47:33;11.10;99.90
59041;DHT22;44825;53.200;6.448;2022-09-27T07:50:02;11.10;99.90
59041;DHT22;44825;53.200;6.448;2022-09-27T07:52:30;11.10;99.90
59041;DHT22;44825;53.200;6.448;2022-09-27T07:55:05;11.10;99.90
59041;DHT22;44825;53.200;6.448;2022-09-27T07:57:33;11.10;99.90
59041;DHT22;44825;53.200;6.448;2022-09-27T08:00:01;11.10;99.90
59041;DHT22;44825;53.200;6.448;2022-09-27T08:02:28;11.10;99.90
59041;DHT22;44825;53.200;6.448;2022-09-27T08:04:57;11.10;99.90
59041;DHT22;44825;53.200;6.448;2022-09-27T08:07:27;11.10;99.90
59041;DHT22;44825;53.200;6.448;2022-09-27T08:09:55;11.10;99.90
59041;DHT22;44825;53.200;6.448;2022-09-27T08:12:22;11.10;99.90
59041;DHT22;44825;53.200;6.448;2022-09-27T08:14:50;11.10;99.90
59041;DHT22;44825;53.200;6.448;2022-09-27T08:17:17;11.20;99.90
59041;DHT22;44825;53.200;6.448;2022-09-27T08:19:45;11.20;99.90
59041;DHT22;44825;53.200;6.448;2022-09-27T08:22:15;11.20;99.90
59041;DHT22;44825;53.200;6.448;2022-09-27T08:24:43;11.40;99.90
59041;DHT22;44825;53.200;6.448;2022-09-27T08:27:11;11.40;99.90
59041;DHT22;44825;53.200;6.448;2022-09-27T08:29:38;11.40;99.90
59041;DHT22;44825;53.200;6.448;2022-09-27T08:32:06;11.50;99.90
59041;DHT22;44825;53.200;6.448;2022-09-27T08:34:34;11.60;99.90
59041;DHT22;44825;53.200;6.448;2022-09-27T08:37:02;11.60;99.90
59041;DHT22;44825;53.200;6.448;2022-09-27T08:39:29;11.60;99.90
59041;DHT22;44825;53.200;6.448;2022-09-27T08:42:04;11.60;99.90
59041;DHT22;44825;53.200;6.448;2022-09-27T08:44:37;11.60;99.90
59041;DHT22;44825;53.200;6.448;2022-09-27T08:47:13;11.60;99.90
59041;DHT22;44825;53.200;6.448;2022-09-27T08:49:44;11.60;99.90
59041;DHT22;44825;53.200;6.448;2022-09-27T08:52:17;11.60;99.90
59041;DHT22;44825;53.200;6.448;2022-09-27T08:54:46;11.60;99.90
59041;DHT22;44825;53.200;6.448;2022-09-27T08:57:15;11.60;99.90
59041;DHT22;44825;53.200;6.448;2022-09-27T08:59:47;11.70;99.90
59041;DHT22;44825;53.200;6.448;2022-09-27T09:02:17;11.70;99.90
59041;DHT22;44825;53.200;6.448;2022-09-27T09:04:46;11.70;99.90
59041;DHT22;44825;53.200;6.448;2022-09-27T09:07:29;11.80;99.90
59041;DHT22;44825;53.200;6.448;2022-09-27T09:10:11;11.80;99.90
59041;DHT22;44825;53.200;6.448;2022-09-27T09:13:12;11.90;99.90
59041;DHT22;44825;53.200;6.448;2022-09-27T09:15:44;11.90;99.90
59041;DHT22;44825;53.200;6.448;2022-09-27T09:18:29;11.90;99.90
59041;DHT22;44825;53.200;6.448;2022-09-27T09:21:07;12.00;99.90
59041;DHT22;44825;53.200;6.448;2022-09-27T09:23:58;12.10;99.90
59041;DHT22;44825;53.200;6.448;2022-09-27T09:26:33;12.10;99.90
59041;DHT22;44825;53.200;6.448;2022-09-27T09:29:23;12.10;99.90
59041;DHT22;44825;53.200;6.448;2022-09-27T09:31:59;12.00;99.90
59041;DHT22;44825;53.200;6.448;2022-09-27T09:34:31;11.80;99.90
59041;DHT22;44825;53.200;6.448;2022-09-27T09:37:02;11.70;99.90
59041;DHT22;44825;53.200;6.448;2022-09-27T09:39:34;11.60;99.90
59041;DHT22;44825;53.200;6.448;2022-09-27T09:42:06;11.60;99.90
59041;DHT22;44825;53.200;6.448;2022-09-27T09:44:44;11.60;99.90
59041;DHT22;44825;53.200;6.448;2022-09-27T09:47:23;11.60;99.90
59041;DHT22;44825;53.200;6.448;2022-09-27T09:49:56;11.60;99.90
59041;DHT22;44825;53.200;6.448;2022-09-27T09:52:28;11.50;99.90
59041;DHT22;44825;53.200;6.448;2022-09-27T09:55:04;11.50;99.90
59041;DHT22;44825;53.200;6.448;2022-09-27T09:57:39;11.50;99.90
59041;DHT22;44825;53.200;6.448;2022-09-27T10:00:14;11.50;99.90
59041;DHT22;44825;53.200;6.448;2022-09-27T10:02:43;11.60;99.90
59041;DHT22;44825;53.200;6.448;2022-09-27T10:05:14;11.50;99.90
59041;DHT22;44825;53.200;6.448;2022-09-27T10:07:42;11.50;99.90
59041;DHT22;44825;53.200;6.448;2022-09-27T10:10:13;11.60;99.90
59041;DHT22;44825;53.200;6.448;2022-09-27T10:12:41;11.60;99.90
59041;DHT22;44825;53.200;6.448;2022-09-27T10:15:15;11.60;99.90
59041;DHT22;44825;53.200;6.448;2022-09-27T10:17:45;11.60;99.90
59041;DHT22;44825;53.200;6.448;2022-09-27T10:20:29;11.60;99.90
59041;DHT22;44825;53.200;6.448;2022-09-27T10:23:03;11.70;99.90
59041;DHT22;44825;53.200;6.448;2022-09-27T10:25:46;11.80;99.90
59041;DHT22;44825;53.200;6.448;2022-09-27T10:28:28;11.80;99.90
59041;DHT22;44825;53.200;6.448;2022-09-27T10:31:01;11.90;99.90
59041;DHT22;44825;53.200;6.448;2022-09-27T10:33:29;11.90;99.90
59041;DHT22;44825;53.200;6.448;2022-09-27T10:35:58;12.00;99.90
59041;DHT22;44825;53.200;6.448;2022-09-27T10:38:28;12.00;99.90
59041;DHT22;44825;53.200;6.448;2022-09-27T10:40:58;12.00;99.90
59041;DHT22;44825;53.200;6.448;2022-09-27T10:43:41;11.90;99.90
59041;DHT22;44825;53.200;6.448;2022-09-27T10:46:15;11.90;99.90
59041;DHT22;44825;53.200;6.448;2022-09-27T10:48:44;11.80;99.90
59041;DHT22;44825;53.200;6.448;2022-09-27T10:51:28;11.80;99.90
59041;DHT22;44825;53.200;6.448;2022-09-27T10:53:56;11.70;99.90
59041;DHT22;44825;53.200;6.448;2022-09-27T10:56:28;11.60;99.90
59041;DHT22;44825;53.200;6.448;2022-09-27T10:58:56;11.50;99.90
59041;DHT22;44825;53.200;6.448;2022-09-27T11:01:36;11.40;99.90
59041;DHT22;44825;53.200;6.448;2022-09-27T11:04:05;11.30;99.90
59041;DHT22;44825;53.200;6.448;2022-09-27T11:06:32;11.30;99.90
59041;DHT22;44825;53.200;6.448;2022-09-27T11:09:15;11.30;99.90
59041;DHT22;44825;53.200;6.448;2022-09-27T11:11:44;11.20;99.90
59041;DHT22;44825;53.200;6.448;2022-09-27T11:14:19;11.20;99.90
59041;DHT22;44825;53.200;6.448;2022-09-27T11:17:07;11.20;99.90
59041;DHT22;44825;53.200;6.448;2022-09-27T11:19:48;11.20;99.90
59041;DHT22;44825;53.200;6.448;2022-09-27T11:22:42;11.20;99.90
59041;DHT22;44825;53.200;6.448;2022-09-27T11:25:19;11.20;99.90
59041;DHT22;44825;53.200;6.448;2022-09-27T11:28:01;11.30;99.90
59041;DHT22;44825;53.200;6.448;2022-09-27T11:30:35;11.40;99.90
59041;DHT22;44825;53.200;6.448;2022-09-27T11:33:26;11.60;99.90
59041;DHT22;44825;53.200;6.448;2022-09-27T11:36:02;11.90;99.90
59041;DHT22;44825;53.200;6.448;2022-09-27T11:38:33;12.00;99.90
59041;DHT22;44825;53.200;6.448;2022-09-27T11:41:09;12.20;99.90
59041;DHT22;44825;53.200;6.448;2022-09-27T11:46:32;12.40;99.90
59041;DHT22;44825;53.200;6.448;2022-09-27T11:49:38;12.50;99.90
59041;DHT22;44825;53.200;6.448;2022-09-27T11:52:26;12.60;99.90
59041;DHT22;44825;53.200;6.448;2022-09-27T11:55:14;12.80;99.90
59041;DHT22;44825;53.200;6.448;2022-09-27T11:57:51;12.80;99.90
59041;DHT22;44825;53.200;6.448;2022-09-27T12:00:23;12.70;99.90
59041;DHT22;44825;53.200;6.448;2022-09-27T12:03:17;12.60;99.90
59041;DHT22;44825;53.200;6.448;2022-09-27T12:05:59;12.40;99.90
59041;DHT22;44825;53.200;6.448;2022-09-27T12:08:37;12.30;99.90
59041;DHT22;44825;53.200;6.448;2022-09-27T12:11:17;12.20;99.90
59041;DHT22;44825;53.200;6.448;2022-09-27T12:13:49;12.20;99.90
59041;DHT22;44825;53.200;6.448;2022-09-27T12:16:19;12.20;99.90
59041;DHT22;44825;53.200;6.448;2022-09-27T12:18:50;12.20;99.90
59041;DHT22;44825;53.200;6.448;2022-09-27T12:21:19;12.20;99.90
59041;DHT22;44825;53.200;6.448;2022-09-27T12:23:49;12.20;99.90
59041;DHT22;44825;53.200;6.448;2022-09-27T12:26:19;12.20;99.90
59041;DHT22;44825;53.200;6.448;2022-09-27T12:28:51;12.30;99.90
59041;DHT22;44825;53.200;6.448;2022-09-27T12:31:22;12.30;99.90
59041;DHT22;44825;53.200;6.448;2022-09-27T12:34:03;12.30;99.90
59041;DHT22;44825;53.200;6.448;2022-09-27T12:36:38;12.30;99.90
59041;DHT22;44825;53.200;6.448;2022-09-27T12:39:14;12.40;99.90
59041;DHT22;44825;53.200;6.448;2022-09-27T12:41:49;12.30;99.90
59041;DHT22;44825;53.200;6.448;2022-09-27T12:44:17;12.20;99.90
59041;DHT22;44825;53.200;6.448;2022-09-27T12:46:53;12.20;99.90
59041;DHT22;44825;53.200;6.448;2022-09-27T12:49:30;12.20;99.90
59041;DHT22;44825;53.200;6.448;2022-09-27T12:52:03;12.20;99.90
59041;DHT22;44825;53.200;6.448;2022-09-27T12:54:50;12.20;99.90
59041;DHT22;44825;53.200;6.448;2022-09-27T12:57:30;12.20;99.90
59041;DHT22;44825;53.200;6.448;2022-09-27T13:00:08;12.30;99.90
59041;DHT22;44825;53.200;6.448;2022-09-27T13:02:55;12.30;99.90
59041;DHT22;44825;53.200;6.448;2022-09-27T13:05:55;12.30;99.90
59041;DHT22;44825;53.200;6.448;2022-09-27T13:08:57;12.30;99.90
59041;DHT22;44825;53.200;6.448;2022-09-27T13:11:38;12.30;99.90
59041;DHT22;44825;53.200;6.448;2022-09-27T13:14:16;12.30;99.90
59041;DHT22;44825;53.200;6.448;2022-09-27T13:16:46;12.40;99.90
59041;DHT22;44825;53.200;6.448;2022-09-27T13:19:36;12.30;99.90
59041;DHT22;44825;53.200;6.448;2022-09-27T13:22:04;12.30;99.90
59041;DHT22;44825;53.200;6.448;2022-09-27T13:24:45;12.20;99.90
59041;DHT22;44825;53.200;6.448;2022-09-27T13:27:35;12.10;99.90
59041;DHT22;44825;53.200;6.448;2022-09-27T13:33:44;12.00;99.90
59041;DHT22;44825;53.200;6.448;2022-09-27T13:36:32;11.80;99.90
59041;DHT22;44825;53.200;6.448;2022-09-27T13:39:12;11.80;99.90
59041;DHT22;44825;53.200;6.448;2022-09-27T13:42:07;11.70;99.90
59041;DHT22;44825;53.200;6.448;2022-09-27T13:47:26;11.70;99.90
59041;DHT22;44825;53.200;6.448;2022-09-27T13:50:03;11.70;99.90
59041;DHT22;44825;53.200;6.448;2022-09-27T13:52:41;11.70;99.90
59041;DHT22;44825;53.200;6.448;2022-09-27T13:55:38;11.70;99.90
59041;DHT22;44825;53.200;6.448;2022-09-27T13:58:16;11.70;99.90
59041;DHT22;44825;53.200;6.448;2022-09-27T14:00:53;11.80;99.90
59041;DHT22;44825;53.200;6.448;2022-09-27T14:03:27;11.80;99.90
59041;DHT22;44825;53.200;6.448;2022-09-27T14:05:57;11.90;99.90
59041;DHT22;44825;53.200;6.448;2022-09-27T14:08:29;11.90;99.90
59041;DHT22;44825;53.200;6.448;2022-09-27T14:10:58;11.90;99.90
59041;DHT22;44825;53.200;6.448;2022-09-27T14:13:29;11.90;99.90
59041;DHT22;44825;53.200;6.448;2022-09-27T14:16:01;11.80;99.90
59041;DHT22;44825;53.200;6.448;2022-09-27T14:18:29;11.80;99.90
59041;DHT22;44825;53.200;6.448;2022-09-27T14:21:10;11.70;99.90
59041;DHT22;44825;53.200;6.448;2022-09-27T14:23:40;11.70;99.90
59041;DHT22;44825;53.200;6.448;2022-09-27T14:26:21;11.60;99.90
59041;DHT22;44825;53.200;6.448;2022-09-27T14:28:50;11.60;99.90
59041;DHT22;44825;53.200;6.448;2022-09-27T14:31:20;11.60;99.90
59041;DHT22;44825;53.200;6.448;2022-09-27T14:33:49;11.60;99.90
59041;DHT22;44825;53.200;6.448;2022-09-27T14:36:24;11.60;99.90
59041;DHT22;44825;53.200;6.448;2022-09-27T14:39:14;11.60;99.90
59041;DHT22;44825;53.200;6.448;2022-09-27T14:41:42;11.60;99.90
59041;DHT22;44825;53.200;6.448;2022-09-27T14:44:16;11.60;99.90
59041;DHT22;44825;53.200;6.448;2022-09-27T14:46:45;11.60;99.90
59041;DHT22;44825;53.200;6.448;2022-09-27T14:49:19;11.70;99.90
59041;DHT22;44825;53.200;6.448;2022-09-27T14:51:52;11.70;99.90
59041;DHT22;44825;53.200;6.448;2022-09-27T14:54:21;11.70;99.90
59041;DHT22;44825;53.200;6.448;2022-09-27T14:56:50;11.60;99.90
59041;DHT22;44825;53.200;6.448;2022-09-27T14:59:23;11.70;99.90
59041;DHT22;44825;53.200;6.448;2022-09-27T15:01:57;11.70;99.90
59041;DHT22;44825;53.200;6.448;2022-09-27T15:04:28;11.70;99.90
59041;DHT22;44825;53.200;6.448;2022-09-27T15:06:57;11.60;99.90
59041;DHT22;44825;53.200;6.448;2022-09-27T15:09:24;11.60;99.90
59041;DHT22;44825;53.200;6.448;2022-09-27T15:11:54;11.60;99.90
59041;DHT22;44825;53.200;6.448;2022-09-27T15:14:25;11.60;99.90
59041;DHT22;44825;53.200;6.448;2022-09-27T15:16:57;11.60;99.90
59041;DHT22;44825;53.200;6.448;2022-09-27T15:19:31;11.60;99.90
59041;DHT22;44825;53.200;6.448;2022-09-27T15:22:29;11.60;99.90
59041;DHT22;44825;53.200;6.448;2022-09-27T15:25:05;11.60;99.90
59041;DHT22;44825;53.200;6.448;2022-09-27T15:27:35;11.60;99.90
59041;DHT22;44825;53.200;6.448;2022-09-27T15:30:06;11.60;99.90
59041;DHT22;44825;53.200;6.448;2022-09-27T15:32:48;11.60;99.90
59041;DHT22;44825;53.200;6.448;2022-09-27T15:35:21;11.60;99.90
59041;DHT22;44825;53.200;6.448;2022-09-27T15:37:49;11.60;99.90
59041;DHT22;44825;53.200;6.448;2022-09-27T15:43:35;11.60;99.90
59041;DHT22;44825;53.200;6.448;2022-09-27T15:46:34;11.60;99.90
59041;DHT22;44825;53.200;6.448;2022-09-27T15:49:30;11.60;99.90
59041;DHT22;44825;53.200;6.448;2022-09-27T15:51:59;11.60;99.90
59041;DHT22;44825;53.200;6.448;2022-09-27T15:54:28;11.60;99.90
59041;DHT22;44825;53.200;6.448;2022-09-27T15:56:59;11.60;99.90
59041;DHT22;44825;53.200;6.448;2022-09-27T15:59:31;11.60;99.90
59041;DHT22;44825;53.200;6.448;2022-09-27T16:02:03;11.60;99.90
59041;DHT22;44825;53.200;6.448;2022-09-27T16:04:32;11.60;99.90
59041;DHT22;44825;53.200;6.448;2022-09-27T16:07:00;11.60;99.90
59041;DHT22;44825;53.200;6.448;2022-09-27T16:09:29;11.60;99.90
59041;DHT22;44825;53.200;6.448;2022-09-27T16:11:57;11.60;99.90
59041;DHT22;44825;53.200;6.448;2022-09-27T16:14:24;11.60;99.90
59041;DHT22;44825;53.200;6.448;2022-09-27T16:16:54;11.60;99.90
59041;DHT22;44825;53.200;6.448;2022-09-27T16:19:24;11.60;99.90
59041;DHT22;44825;53.200;6.448;2022-09-27T16:21:51;11.60;99.90